Flight Track Log - Related Links

Times and Time Zones

All times are in EST time to prevent confusion due to time zone crossing. See the EJA662 flight status page for this flight to view local times or setup timezone preferences in your user account.

Time Position Orientation Groundspeed Altitude Reporting Facility
EST Latitude Longitude Course Direction KTS MPH feet Rate Location/Type
Fri 03:17:51 PM 42.9333 -87.9000 206° Southwest 161 185 1,600  Level KMKE
Fri 03:18:57 PM 42.8833 -87.9333 206° Southwest 217 250 5,000 3,238 Climbing KMKE
Fri 03:19:57 PM 42.8333 -88.0000 224° Southwest 244 281 8,400 2,757 Climbing KMKE
Fri 03:21:25 PM 42.7644 -88.0625 214° Southwest 255 293 11,800 1,960 Climbing Chicago Center
Fri 03:22:27 PM 42.6661 -88.0372 169° South 298 343 13,300 1,887 Climbing Chicago Center
Fri 03:23:29 PM 42.5803 -88.0347 179° South 307 353 15,700 2,177 Climbing Chicago Center
Fri 03:24:31 PM 42.4903 -88.0292 177° South 320 368 17,800 2,081 Climbing Chicago Center
Fri 03:25:33 PM 42.3961 -88.0225 177° South 335 386 20,000 2,177 Climbing Chicago Center
Fri 03:26:35 PM 42.3011 -88.0172 178° South 341 392 22,300 2,177 Climbing Chicago Center
Fri 03:27:37 PM 42.2053 -88.0117 178° South 343 395 24,500 2,323 Climbing Chicago Center
Fri 03:28:39 PM 42.0864 -88.0036 177° South 356 410 27,100 2,419 Climbing Chicago Center
Fri 03:29:41 PM 41.9894 -87.9844 172° South 353 406 29,500 2,129 Climbing Chicago Center
Fri 03:30:43 PM 41.8919 -87.9606 170° South 356 410 31,500 1,258 Climbing Chicago Center
Fri 03:31:45 PM 41.7922 -87.9369 170° South 361 415 32,100 968 Climbing Chicago Center
Fri 03:32:47 PM 41.6861 -87.9106 169° South 381 438 33,500 1,210 Climbing Chicago Center
Fri 03:33:49 PM 41.5808 -87.8864 170° South 381 438 34,600 1,113 Climbing Chicago Center
Fri 03:34:51 PM 41.4756 -87.8250 156° South 417 480 35,800 1,452 Climbing Chicago Center
Fri 03:35:53 PM 41.3511 -87.7389 153° Southeast 416 479 37,600 1,548 Climbing Chicago Center
Fri 03:36:55 PM 41.2481 -87.7147 170° South 381 438 39,000 1,403 Climbing Chicago Center
Fri 03:37:57 PM 41.1475 -87.6925 171° South 368 423 40,500 968 Climbing Chicago Center
Fri 03:38:59 PM 41.0478 -87.6722 171° South 364 419 41,000 242 Climbing Chicago Center
Fri 03:40:01 PM 40.9414 -87.6472 170° South 381 438 41,000  Level Chicago Center
Fri 03:41:03 PM 40.8303 -87.6222 170° South 398 458 41,000  Level Chicago Center
Fri 03:42:04 PM 40.7172 -87.5981 171° South 407 468 41,000  Level Chicago Center
Fri 03:43:06 PM 40.5844 -87.5700 171° South 405 466 41,000  Level Chicago Center
Fri 03:44:08 PM 40.4739 -87.5464 171° South 404 465 41,000  Level Chicago Center
Fri 03:45:10 PM 40.3600 -87.5225 171° South 409 471 41,000  Level Chicago Center
Fri 03:46:12 PM 40.2486 -87.4981 170° South 409 471 41,000  Level Chicago Center
Fri 03:47:14 PM 40.1356 -87.4756 171° South 409 471 41,000  Level Chicago Center
Fri 03:48:16 PM 40.0231 -87.4525 171° South 411 473 41,000  Level Chicago Center
Fri 03:49:18 PM 39.8889 -87.4258 171° South 409 471 41,000  Level Chicago Center
Fri 03:50:20 PM 39.7775 -87.4025 171° South 408 470 41,000  Level Chicago Center
Fri 03:51:36 PM 39.6408 -87.3739 171° South 411 473 41,000  Level Indianapolis Center
Fri 03:52:38 PM 39.5244 -87.3500 171° South 420 483 41,000  Level Indianapolis Center
Fri 03:53:40 PM 39.3853 -87.3211 171° South 424 488 41,000  Level Indianapolis Center
Fri 03:54:42 PM 39.2706 -87.2983 171° South 422 486 41,000  Level Indianapolis Center
Fri 03:55:45 PM 39.1556 -87.2750 171° South 421 484 41,000  Level Indianapolis Center
Fri 03:56:47 PM 39.0319 -87.2492 171° South 422 486 41,000  Level Indianapolis Center
Fri 03:57:49 PM 38.9156 -87.2264 171° South 421 484 41,000  Level Indianapolis Center
Fri 03:58:51 PM 38.8000 -87.2028 171° South 420 483 41,000  Level Indianapolis Center
Fri 03:59:53 PM 38.6847 -87.1789 171° South 418 481 41,000  Level Indianapolis Center
Fri 04:00:55 PM 38.5700 -87.1558 171° South 417 480 41,000  Level Indianapolis Center
Fri 04:01:57 PM 38.4561 -87.1336 171° South 415 478 41,000  Level Indianapolis Center
Fri 04:02:59 PM 38.3325 -87.1089 171° South 415 478 41,000  Level Indianapolis Center
Fri 04:04:01 PM 38.1958 -87.0831 172° South 415 478 41,000  Level Indianapolis Center
Fri 04:05:03 PM 38.0986 -87.0625 171° South 417 480 41,000  Level Indianapolis Center
Fri 04:06:05 PM 37.9594 -87.0353 171° South 419 482 41,000  Level Indianapolis Center
Fri 04:07:07 PM 37.8433 -87.0119 171° South 420 483 41,000  Level Indianapolis Center
Fri 04:08:10 PM 37.7253 -86.9892 171° South 426 490 41,000  Level Indianapolis Center
Fri 04:09:12 PM 37.6089 -86.9658 171° South 423 487 41,000  Level Indianapolis Center
Fri 04:10:14 PM 37.4878 -86.9456 172° South 424 488 41,000  Level Indianapolis Center
Fri 04:11:16 PM 37.3703 -86.9214 171° South 424 488 41,000  Level Indianapolis Center
Fri 04:12:18 PM 37.2536 -86.8992 171° South 421 484 41,000  Level Indianapolis Center
Fri 04:13:20 PM 37.1172 -86.8725 171° South 422 486 41,000  Level Indianapolis Center
Fri 04:14:22 PM 37.0008 -86.8339 165° South 429 494 41,000  Level Indianapolis Center
Fri 04:15:24 PM 36.8836 -86.7828 161° South 438 504 41,000  Level Indianapolis Center
Fri 04:16:20 PM 36.7867 -86.7419 161° South 437 503 41,000  Level Memphis Center
Fri 04:17:22 PM 36.6694 -86.6933 162° South 437 503 41,000  Level Memphis Center
Fri 04:18:24 PM 36.5306 -86.6378 162° South 440 506 41,000  Level Memphis Center
Fri 04:19:26 PM 36.4111 -86.5883 162° South 442 509 41,000  Level Memphis Center
Fri 04:20:28 PM 36.2903 -86.5397 162° South 445 512 41,000  Level Memphis Center
Fri 04:21:30 PM 36.1700 -86.4911 162° South 446 513 41,000  Level Memphis Center
Fri 04:22:32 PM 36.0497 -86.4431 162° South 446 513 41,000  Level Memphis Center
Fri 04:23:34 PM 35.9300 -86.3944 162° South 447 514 41,000  Level Memphis Center
Fri 04:24:36 PM 35.8106 -86.3467 162° South 445 512 41,000  Level Memphis Center
Fri 04:25:38 PM 35.6919 -86.2989 162° South 444 511 41,000  Level Memphis Center
Fri 04:26:28 PM 35.5919 -86.2606 163° South 469 540 41,000  Level Atlanta Center
Fri 04:27:28 PM 35.4739 -86.2114 161° South 456 525 41,000  Level Atlanta Center
Fri 04:28:28 PM 35.3475 -86.1597 162° South 451 519 41,000  Level Atlanta Center
Fri 04:29:28 PM 35.2272 -86.1136 163° South 451 519 41,000  Level Atlanta Center
Fri 04:30:28 PM 35.1236 -86.0753 163° South 446 513 41,000  Level Atlanta Center
Fri 04:31:28 PM 35.0053 -86.0294 162° South 446 513 41,000  Level Atlanta Center
Fri 04:32:28 PM 34.8767 -85.9781 162° South 446 513 41,000  Level Atlanta Center
Fri 04:33:28 PM 34.7586 -85.9275 161° South 446 513 41,000  Level Atlanta Center
Fri 04:34:28 PM 34.6425 -85.8844 163° South 441 507 41,000  Level Atlanta Center
Fri 04:35:28 PM 34.5219 -85.8364 162° South 441 507 41,000  Level Atlanta Center
Fri 04:36:28 PM 34.4161 -85.7989 164° South 436 502 41,000  Level Atlanta Center
Fri 04:37:28 PM 34.2875 -85.7483 162° South 436 502 41,000  Level Atlanta Center
Fri 04:38:28 PM 34.1692 -85.7033 163° South 441 507 41,000  Level Atlanta Center
Fri 04:39:28 PM 34.0508 -85.6608 163° South 441 507 41,000  Level Atlanta Center
Fri 04:40:28 PM 33.9325 -85.6136 162° South 436 502 41,000  Level Atlanta Center
Fri 04:41:28 PM 33.8139 -85.5714 164° South 441 507 41,000  Level Atlanta Center
Fri 04:42:28 PM 33.6956 -85.5269 163° South 441 507 41,000  Level Atlanta Center
Fri 04:43:28 PM 33.5769 -85.4825 163° South 441 507 41,000  Level Atlanta Center
Fri 04:44:28 PM 33.4608 -85.4381 162° South 447 514 41,000  Level Atlanta Center
Fri 04:45:28 PM 33.3464 -85.3942 162° South 435 501 41,000  Level Atlanta Center
Fri 04:46:28 PM 33.2258 -85.3500 163° South 442 509 41,000  Level Atlanta Center
Fri 04:47:28 PM 33.1094 -85.3086 163° South 437 503 41,000  Level Atlanta Center
Fri 04:48:28 PM 32.9908 -85.2572 160° South 437 503 41,000  Level Atlanta Center
Fri 04:49:28 PM 32.8725 -85.2086 161° South 442 509 41,000  Level Atlanta Center
Fri 04:50:28 PM 32.7600 -85.1703 164° South 442 509 41,000  Level Atlanta Center
Fri 04:51:28 PM 32.6394 -85.1242 162° South 449 517 41,000  Level Atlanta Center
Fri 04:52:28 PM 32.5208 -85.0808 163° South 444 511 41,000  Level Atlanta Center
Fri 04:53:28 PM 32.4042 -85.0378 163° South 439 505 41,000  Level Atlanta Center
Fri 04:54:28 PM 32.2856 -84.9947 163° South 439 505 41,000  Level Atlanta Center
Fri 04:55:28 PM 32.1794 -84.9592 164° South 439 505 41,000  Level Atlanta Center
Fri 04:56:28 PM 32.0608 -84.9161 163° South 439 505 41,000  Level Atlanta Center
Fri 04:57:28 PM 31.9400 -84.8733 163° South 444 511 41,000  Level Atlanta Center
Fri 04:59:52 PM 31.6536 -84.7669 162° South 470 541 41,000  Level Jacksonville Center
Fri 05:00:52 PM 31.5311 -84.7231 163° South 460 529 41,000  Level Jacksonville Center
Fri 05:01:52 PM 31.4128 -84.6794 163° South 460 529 41,000  Level Jacksonville Center
Fri 05:02:52 PM 31.2903 -84.6381 164° South 455 524 41,000  Level Jacksonville Center
Fri 05:03:52 PM 31.1700 -84.5703 154° Southeast 460 529 41,000  Level Jacksonville Center
Fri 05:04:52 PM 31.0561 -84.4883 148° Southeast 468 539 41,000  Level Jacksonville Center
Fri 05:05:52 PM 30.9425 -84.4017 147° Southeast 475 547 41,000  Level Jacksonville Center
Fri 05:06:52 PM 30.8286 -84.3175 148° Southeast 485 558 41,000  Level Jacksonville Center
Fri 05:07:52 PM 30.7147 -84.2311 147° Southeast 485 558 41,000  Level Jacksonville Center
Fri 05:08:52 PM 30.6028 -84.1475 147° Southeast 485 558 41,000  Level Jacksonville Center
Fri 05:09:52 PM 30.4825 -84.0569 147° Southeast 485 558 41,000  Level Jacksonville Center
Fri 05:10:52 PM 30.3664 -83.9736 148° Southeast 485 558 41,000  Level Jacksonville Center
Fri 05:11:52 PM 30.2542 -83.8931 148° Southeast 480 552 41,000  Level Jacksonville Center
Fri 05:12:52 PM 30.1400 -83.8078 147° Southeast 485 558 41,000  Level Jacksonville Center
Fri 05:13:52 PM 30.0236 -83.7250 148° Southeast 485 558 41,000  Level Jacksonville Center
Fri 05:14:52 PM 29.9114 -83.6450 148° Southeast 485 558 41,000  Level Jacksonville Center
Fri 05:15:52 PM 29.7992 -83.5628 148° Southeast 485 558 41,000  Level Jacksonville Center
Fri 05:16:52 PM 29.6931 -83.4881 149° Southeast 491 565 41,000  Level Jacksonville Center
Fri 05:17:52 PM 29.5806 -83.4061 148° Southeast 491 565 41,000  Level Jacksonville Center
Fri 05:18:52 PM 29.4661 -83.3219 147° Southeast 491 565 41,000  Level Jacksonville Center
Fri 05:19:52 PM 29.3494 -83.2403 149° Southeast 491 565 41,000  Level Jacksonville Center
Fri 05:20:52 PM 29.2392 -83.1592 147° Southeast 491 565 41,000  Level Jacksonville Center
Fri 05:21:52 PM 29.1264 -83.0781 148° Southeast 486 559 41,000  Level Jacksonville Center
Fri 05:22:52 PM 29.0139 -82.9994 149° Southeast 480 552 41,000  Level Jacksonville Center
Fri 05:23:52 PM 28.9033 -82.9211 148° Southeast 480 552 41,000  Level Jacksonville Center
Fri 05:24:52 PM 28.7906 -82.8406 148° Southeast 480 552 41,000  Level Jacksonville Center
Fri 05:25:52 PM 28.6694 -82.7578 149° Southeast 475 547 41,000  Level Jacksonville Center
Fri 05:26:52 PM 28.5589 -82.6775 147° Southeast 475 547 41,000  Level Jacksonville Center
Fri 05:28:23 PM 28.3878 -82.5569 148° Southeast 489 563 41,000 -437 Level Miami Center
Fri 05:29:23 PM 28.2722 -82.4758 148° Southeast 484 557 39,900 -1,800 Descending Miami Center
Fri 05:30:23 PM 28.1564 -82.3969 149° Southeast 479 551 37,400 -2,450 Descending Miami Center
Fri 05:31:23 PM 28.0425 -82.3186 149° Southeast 479 551 35,000 -1,250 Descending Miami Center
Fri 05:32:23 PM 27.9169 -82.2703 161° South 473 544 34,900 -500 Descending Miami Center
Fri 05:33:23 PM 27.8183 -82.2350 162° South 467 537 34,000 -1,300 Descending Miami Center
Fri 05:34:23 PM 27.6803 -82.1839 162° South 472 543 32,300 -1,650 Descending Miami Center
Fri 05:35:23 PM 27.5442 -82.1378 163° South 472 543 30,700 -1,550 Descending Miami Center
Fri 05:36:23 PM 27.4206 -82.0947 163° South 467 537 29,200 -1,450 Descending Miami Center
Fri 05:37:23 PM 27.2969 -82.0519 163° South 467 537 27,800 -1,450 Descending Miami Center
Fri 05:38:23 PM 27.1875 -82.0167 164° South 462 532 26,300 -1,550 Descending Miami Center
Fri 05:39:23 PM 27.0575 -81.9758 164° South 447 514 24,700 -1,350 Descending Miami Center
Fri 05:40:23 PM 26.9564 -81.9433 164° South 440 506 23,600 -1,300 Descending Miami Center
Fri 05:41:23 PM 26.8647 -81.8789 148° Southeast 392 451 22,100 -1,450 Descending Miami Center
Fri 05:42:23 PM 26.7822 -81.7917 137° Southeast 398 458 20,700 -1,450 Descending Miami Center
Fri 05:43:23 PM 26.7083 -81.6908 129° Southeast 404 465 19,200 -850 Descending Miami Center
Fri 05:44:23 PM 26.7108 -81.5517 89° East 375 432 19,000 -600 Descending Miami Center
Fri 05:45:23 PM 26.7353 -81.4364 77° East 369 425 18,000 -1,300 Descending Miami Center
Fri 05:46:23 PM 26.7597 -81.3233 76° East 369 425 16,400 -1,600 Descending Miami Center
Fri 05:47:23 PM 26.7883 -81.2058 75° East 374 430 14,800 -1,600 Descending Miami Center
Fri 05:48:23 PM 26.8147 -81.0928 75° East 379 436 13,200 -1,600 Descending Miami Center
Fri 05:49:23 PM 26.8303 -80.9817 81° East 372 428 11,600 -1,450 Descending Miami Center
Fri 05:50:23 PM 26.8394 -80.8819 84° East 338 389 10,300 -800 Descending Miami Center
Fri 05:51:23 PM 26.8206 -80.8044 105° East 298 343 10,000 -150 Descending Miami Center
Fri 05:52:23 PM 26.7917 -80.7172 110° East 286 329 10,000 -650 Level Miami Center
Fri 05:53:23 PM 26.7522 -80.6278 116° Southeast 297 342 8,700 -1,550 Descending Miami Center
Fri 05:54:23 PM 26.7231 -80.5478 112° Southeast 278 320 6,900 -1,700 Descending Miami Center
Fri 05:55:23 PM 26.6958 -80.4700 111° Southeast 278 320 5,300 -1,700 Descending Miami Center
Fri 05:56:23 PM 26.6933 -80.3933 92° East 254 292 3,500 -1,600 Descending Miami Center
Fri 05:57:23 PM 26.6889 -80.3211 94° East 238 274 2,100 -750 Descending Miami Center
Fri 05:58:23 PM 26.6861 -80.2628 93° East 199 229 2,000 -100 Descending Miami Center
Fri 05:59:23 PM 26.6853 -80.2117 91° East 171 197 1,900 -100 Descending Miami Center
Fri 06:01:00 PM 26.6607 -80.0913 50° Northeast  Level FlightAware
Fri 06:08:00 PM 26.6667 -80.0833 50° Northeast  Level FlightAware
Fri 06:09:00 PM 26.6832 -80.0956 50° Northeast  Level Estimated

Login

Don't have an account? Register now (free) for customized features, flight alerts, and more!